sensor_id;sensor_type;location;lat;lon;timestamp;pressure;altitude;pressure_sealevel;temperature;humidity
14253;BME280;7210;51.502;10.722;2023-04-08T00:00:18;100193.28;;;5.60;93.67
14253;BME280;7210;51.502;10.722;2023-04-08T00:02:45;100191.09;;;5.63;93.77
14253;BME280;7210;51.502;10.722;2023-04-08T00:05:12;100189.31;;;5.64;93.91
14253;BME280;7210;51.502;10.722;2023-04-08T00:07:39;100175.56;;;5.62;94.06
14253;BME280;7210;51.502;10.722;2023-04-08T00:10:08;100168.03;;;5.59;94.33
14253;BME280;7210;51.502;10.722;2023-04-08T00:12:35;100175.13;;;5.58;94.44
14253;BME280;7210;51.502;10.722;2023-04-08T00:15:05;100172.28;;;5.60;95.00
14253;BME280;7210;51.502;10.722;2023-04-08T00:17:33;100164.63;;;5.58;95.59
14253;BME280;7210;51.502;10.722;2023-04-08T00:20:00;100156.84;;;5.50;96.50
14253;BME280;7210;51.502;10.722;2023-04-08T00:22:27;100163.59;;;5.45;96.76
14253;BME280;7210;51.502;10.722;2023-04-08T00:24:54;100163.53;;;5.38;97.82
14253;BME280;7210;51.502;10.722;2023-04-08T00:27:22;100163.88;;;5.35;98.28
14253;BME280;7210;51.502;10.722;2023-04-08T00:29:50;100168.31;;;5.35;98.59
14253;BME280;7210;51.502;10.722;2023-04-08T00:32:18;100162.44;;;5.33;99.20
14253;BME280;7210;51.502;10.722;2023-04-08T00:34:46;100154.56;;;5.33;99.54
14253;BME280;7210;51.502;10.722;2023-04-08T00:37:13;100148.50;;;5.32;99.71
14253;BME280;7210;51.502;10.722;2023-04-08T00:39:40;100150.50;;;5.30;99.79
14253;BME280;7210;51.502;10.722;2023-04-08T00:42:08;100146.78;;;5.25;100.00
14253;BME280;7210;51.502;10.722;2023-04-08T00:44:35;100152.75;;;5.19;100.00
14253;BME280;7210;51.502;10.722;2023-04-08T00:47:03;100149.13;;;5.20;100.00
14253;BME280;7210;51.502;10.722;2023-04-08T00:49:32;100154.81;;;5.23;100.00
14253;BME280;7210;51.502;10.722;2023-04-08T00:51:59;100153.28;;;5.29;100.00
14253;BME280;7210;51.502;10.722;2023-04-08T00:54:26;100155.38;;;5.33;100.00
14253;BME280;7210;51.502;10.722;2023-04-08T00:56:53;100139.84;;;5.32;100.00
14253;BME280;7210;51.502;10.722;2023-04-08T00:59:21;100132.78;;;5.32;100.00
14253;BME280;7210;51.502;10.722;2023-04-08T01:01:58;100121.38;;;5.25;100.00
14253;BME280;7210;51.502;10.722;2023-04-08T01:04:39;100132.69;;;5.26;100.00
14253;BME280;7210;51.502;10.722;2023-04-08T01:07:17;100141.19;;;5.28;100.00
14253;BME280;7210;51.502;10.722;2023-04-08T01:09:51;100129.06;;;5.27;100.00
14253;BME280;7210;51.502;10.722;2023-04-08T01:12:25;100131.84;;;5.25;100.00
14253;BME280;7210;51.502;10.722;2023-04-08T01:15:03;100137.94;;;5.26;100.00
14253;BME280;7210;51.502;10.722;2023-04-08T01:17:32;100133.69;;;5.25;100.00
14253;BME280;7210;51.502;10.722;2023-04-08T01:20:03;100133.47;;;5.26;100.00
14253;BME280;7210;51.502;10.722;2023-04-08T01:22:45;100129.44;;;5.24;100.00
14253;BME280;7210;51.502;10.722;2023-04-08T01:25:19;100125.00;;;5.24;100.00
14253;BME280;7210;51.502;10.722;2023-04-08T01:27:55;100124.81;;;5.26;100.00
14253;BME280;7210;51.502;10.722;2023-04-08T01:30:26;100125.44;;;5.28;100.00
14253;BME280;7210;51.502;10.722;2023-04-08T01:33:00;100127.44;;;5.26;100.00
14253;BME280;7210;51.502;10.722;2023-04-08T01:35:30;100127.44;;;5.26;100.00
14253;BME280;7210;51.502;10.722;2023-04-08T01:37:59;100122.81;;;5.28;100.00
14253;BME280;7210;51.502;10.722;2023-04-08T01:40:27;100123.19;;;5.25;100.00
14253;BME280;7210;51.502;10.722;2023-04-08T01:42:59;100115.13;;;5.26;100.00
14253;BME280;7210;51.502;10.722;2023-04-08T01:45:29;100115.13;;;5.26;100.00
14253;BME280;7210;51.502;10.722;2023-04-08T01:47:59;100103.94;;;5.18;100.00
14253;BME280;7210;51.502;10.722;2023-04-08T01:50:27;100110.19;;;5.17;100.00
14253;BME280;7210;51.502;10.722;2023-04-08T01:52:56;100107.34;;;5.18;100.00
14253;BME280;7210;51.502;10.722;2023-04-08T01:55:26;100102.94;;;5.19;100.00
14253;BME280;7210;51.502;10.722;2023-04-08T01:57:59;100101.66;;;5.15;100.00
14253;BME280;7210;51.502;10.722;2023-04-08T02:00:30;100105.94;;;5.16;100.00
14253;BME280;7210;51.502;10.722;2023-04-08T02:06:06;100094.78;;;5.14;100.00
14253;BME280;7210;51.502;10.722;2023-04-08T02:08:34;100099.88;;;5.15;100.00
14253;BME280;7210;51.502;10.722;2023-04-08T02:11:02;100098.88;;;5.16;100.00
14253;BME280;7210;51.502;10.722;2023-04-08T02:17:06;100095.00;;;5.12;100.00
14253;BME280;7210;51.502;10.722;2023-04-08T02:19:41;100093.38;;;5.11;100.00
14253;BME280;7210;51.502;10.722;2023-04-08T02:22:18;100093.53;;;5.10;100.00
14253;BME280;7210;51.502;10.722;2023-04-08T02:24:49;100099.41;;;5.12;100.00
14253;BME280;7210;51.502;10.722;2023-04-08T02:27:19;100090.28;;;5.08;100.00
14253;BME280;7210;51.502;10.722;2023-04-08T02:29:49;100095.63;;;5.14;100.00
14253;BME280;7210;51.502;10.722;2023-04-08T02:32:22;100091.19;;;5.15;100.00
14253;BME280;7210;51.502;10.722;2023-04-08T02:34:55;100099.50;;;5.18;100.00
14253;BME280;7210;51.502;10.722;2023-04-08T02:37:23;100115.06;;;5.20;100.00
14253;BME280;7210;51.502;10.722;2023-04-08T02:39:51;100106.81;;;5.23;100.00
14253;BME280;7210;51.502;10.722;2023-04-08T02:42:18;100115.34;;;5.25;100.00
14253;BME280;7210;51.502;10.722;2023-04-08T02:44:45;100122.81;;;5.28;100.00
14253;BME280;7210;51.502;10.722;2023-04-08T02:47:12;100109.38;;;5.31;100.00
14253;BME280;7210;51.502;10.722;2023-04-08T02:49:41;100097.25;;;5.30;100.00
14253;BME280;7210;51.502;10.722;2023-04-08T02:52:08;100105.38;;;5.35;100.00
14253;BME280;7210;51.502;10.722;2023-04-08T02:54:35;100096.91;;;5.33;100.00
14253;BME280;7210;51.502;10.722;2023-04-08T02:57:02;100101.31;;;5.32;100.00
14253;BME280;7210;51.502;10.722;2023-04-08T02:59:30;100103.13;;;5.32;100.00
14253;BME280;7210;51.502;10.722;2023-04-08T03:01:57;100109.38;;;5.31;100.00
14253;BME280;7210;51.502;10.722;2023-04-08T03:04:24;100111.34;;;5.29;100.00
14253;BME280;7210;51.502;10.722;2023-04-08T03:06:55;100109.72;;;5.28;100.00
14253;BME280;7210;51.502;10.722;2023-04-08T03:09:22;100102.84;;;5.27;100.00
14253;BME280;7210;51.502;10.722;2023-04-08T03:11:49;100102.84;;;5.27;100.00
14253;BME280;7210;51.502;10.722;2023-04-08T03:14:19;100103.69;;;5.27;100.00
14253;BME280;7210;51.502;10.722;2023-04-08T03:16:47;100107.94;;;5.28;100.00
14253;BME280;7210;51.502;10.722;2023-04-08T03:19:14;100111.34;;;5.29;100.00
14253;BME280;7210;51.502;10.722;2023-04-08T03:21:41;100103.13;;;5.32;100.00
14253;BME280;7210;51.502;10.722;2023-04-08T03:24:10;100098.53;;;5.34;100.00
14253;BME280;7210;51.502;10.722;2023-04-08T03:26:37;100083.50;;;5.28;100.00
14253;BME280;7210;51.502;10.722;2023-04-08T03:29:04;100087.75;;;5.29;100.00
14253;BME280;7210;51.502;10.722;2023-04-08T03:31:32;100096.53;;;5.36;100.00
14253;BME280;7210;51.502;10.722;2023-04-08T03:34:00;100090.13;;;5.38;100.00
14253;BME280;7210;51.502;10.722;2023-04-08T03:36:28;100097.44;;;5.43;100.00
14253;BME280;7210;51.502;10.722;2023-04-08T03:38:56;100094.44;;;5.46;100.00
14253;BME280;7210;51.502;10.722;2023-04-08T03:41:25;100090.03;;;5.46;100.00
14253;BME280;7210;51.502;10.722;2023-04-08T03:43:52;100081.78;;;5.49;100.00
14253;BME280;7210;51.502;10.722;2023-04-08T03:46:20;100081.59;;;5.51;100.00
14253;BME280;7210;51.502;10.722;2023-04-08T03:48:48;100082.88;;;5.55;100.00
14253;BME280;7210;51.502;10.722;2023-04-08T03:51:16;100080.72;;;5.58;100.00
14253;BME280;7210;51.502;10.722;2023-04-08T03:53:44;100076.25;;;5.59;100.00
14253;BME280;7210;51.502;10.722;2023-04-08T03:56:13;100060.53;;;5.59;100.00
14253;BME280;7210;51.502;10.722;2023-04-08T03:58:41;100058.53;;;5.61;100.00
14253;BME280;7210;51.502;10.722;2023-04-08T04:01:12;100057.34;;;5.63;100.00
14253;BME280;7210;51.502;10.722;2023-04-08T04:03:48;100049.13;;;5.66;100.00
14253;BME280;7210;51.502;10.722;2023-04-08T04:06:15;100044.06;;;5.65;100.00
14253;BME280;7210;51.502;10.722;2023-04-08T04:08:42;100042.06;;;5.67;100.00
14253;BME280;7210;51.502;10.722;2023-04-08T04:11:09;100035.81;;;5.68;100.00
14253;BME280;7210;51.502;10.722;2023-04-08T04:13:36;100037.44;;;5.69;100.00
14253;BME280;7210;51.502;10.722;2023-04-08T04:16:05;100033.19;;;5.68;100.00
14253;BME280;7210;51.502;10.722;2023-04-08T04:18:32;100033.19;;;5.68;100.00
14253;BME280;7210;51.502;10.722;2023-04-08T04:21:00;100032.84;;;5.71;100.00
14253;BME280;7210;51.502;10.722;2023-04-08T04:23:27;100021.09;;;5.67;100.00
14253;BME280;7210;51.502;10.722;2023-04-08T04:25:54;100033.19;;;5.68;100.00
14253;BME280;7210;51.502;10.722;2023-04-08T04:28:21;100041.72;;;5.70;100.00
14253;BME280;7210;51.502;10.722;2023-04-08T04:30:48;100036.81;;;5.67;100.00
14253;BME280;7210;51.502;10.722;2023-04-08T04:33:17;100041.88;;;5.68;100.00
14253;BME280;7210;51.502;10.722;2023-04-08T04:35:44;100039.50;;;5.73;100.00
14253;BME280;7210;51.502;10.722;2023-04-08T04:38:11;100038.09;;;5.71;100.00
14253;BME280;7210;51.502;10.722;2023-04-08T04:40:42;100029.56;;;5.69;100.00
14253;BME280;7210;51.502;10.722;2023-04-08T04:43:09;100033.19;;;5.68;100.00
14253;BME280;7210;51.502;10.722;2023-04-08T04:45:37;100040.44;;;5.66;100.00
14253;BME280;7210;51.502;10.722;2023-04-08T04:48:05;100032.13;;;5.62;100.00
14253;BME280;7210;51.502;10.722;2023-04-08T04:50:35;100037.56;;;5.61;100.00
14253;BME280;7210;51.502;10.722;2023-04-08T04:53:06;100035.94;;;5.60;100.00
14253;BME280;7210;51.502;10.722;2023-04-08T04:55:33;100037.94;;;5.58;100.00
14253;BME280;7210;51.502;10.722;2023-04-08T04:58:00;100043.78;;;5.60;100.00
14253;BME280;7210;51.502;10.722;2023-04-08T05:00:27;100047.25;;;5.60;100.00
14253;BME280;7210;51.502;10.722;2023-04-08T05:02:54;100052.31;;;5.62;100.00
14253;BME280;7210;51.502;10.722;2023-04-08T05:05:22;100057.34;;;5.63;100.00
14253;BME280;7210;51.502;10.722;2023-04-08T05:07:50;100051.31;;;5.63;100.00
14253;BME280;7210;51.502;10.722;2023-04-08T05:10:17;100057.19;;;5.65;100.00
14253;BME280;7210;51.502;10.722;2023-04-08T05:12:45;100069.91;;;5.68;100.00
14253;BME280;7210;51.502;10.722;2023-04-08T05:15:14;100066.66;;;5.66;100.00
14253;BME280;7210;51.502;10.722;2023-04-08T05:17:42;100063.44;;;5.64;100.00
14253;BME280;7210;51.502;10.722;2023-04-08T05:20:10;100074.72;;;5.64;100.00
14253;BME280;7210;51.502;10.722;2023-04-08T05:22:37;100079.16;;;5.64;100.00
14253;BME280;7210;51.502;10.722;2023-04-08T05:25:07;100081.22;;;5.68;100.00
14253;BME280;7210;51.502;10.722;2023-04-08T05:27:35;100088.81;;;5.78;100.00
14253;BME280;7210;51.502;10.722;2023-04-08T05:30:04;100089.47;;;5.80;100.00
14253;BME280;7210;51.502;10.722;2023-04-08T05:32:31;100093.34;;;5.84;100.00
14253;BME280;7210;51.502;10.722;2023-04-08T05:35:01;100094.72;;;5.80;100.00
14253;BME280;7210;51.502;10.722;2023-04-08T05:37:29;100096.69;;;5.78;100.00
14253;BME280;7210;51.502;10.722;2023-04-08T05:39:56;100106.34;;;5.77;100.00
14253;BME280;7210;51.502;10.722;2023-04-08T05:42:25;100113.41;;;5.77;100.00
14253;BME280;7210;51.502;10.722;2023-04-08T05:44:53;100111.72;;;5.84;100.00
14253;BME280;7210;51.502;10.722;2023-04-08T05:47:20;100123.03;;;5.84;100.00
14253;BME280;7210;51.502;10.722;2023-04-08T05:49:47;100119.22;;;5.87;100.00
14253;BME280;7210;51.502;10.722;2023-04-08T05:52:14;100121.66;;;5.88;100.00
14253;BME280;7210;51.502;10.722;2023-04-08T05:54:42;100107.56;;;5.89;100.00
14253;BME280;7210;51.502;10.722;2023-04-08T05:57:11;100116.22;;;5.90;100.00
14253;BME280;7210;51.502;10.722;2023-04-08T05:59:39;100113.06;;;5.94;100.00
14253;BME280;7210;51.502;10.722;2023-04-08T06:02:07;100128.91;;;6.01;100.00
14253;BME280;7210;51.502;10.722;2023-04-08T06:04:34;100122.09;;;6.06;100.00
14253;BME280;7210;51.502;10.722;2023-04-08T06:07:01;100135.44;;;6.11;100.00
14253;BME280;7210;51.502;10.722;2023-04-08T06:09:35;100137.91;;;6.13;100.00
14253;BME280;7210;51.502;10.722;2023-04-08T06:12:03;100135.72;;;6.16;100.00
14253;BME280;7210;51.502;10.722;2023-04-08T06:14:31;100142.41;;;6.19;100.00
14253;BME280;7210;51.502;10.722;2023-04-08T06:16:59;100131.91;;;6.19;100.00
14253;BME280;7210;51.502;10.722;2023-04-08T06:19:26;100126.72;;;6.25;100.00
14253;BME280;7210;51.502;10.722;2023-04-08T06:21:54;100122.94;;;6.28;100.00
14253;BME280;7210;51.502;10.722;2023-04-08T06:24:24;100117.28;;;6.31;100.00
14253;BME280;7210;51.502;10.722;2023-04-08T06:26:54;100121.81;;;6.37;100.00
14253;BME280;7210;51.502;10.722;2023-04-08T06:29:24;100118.44;;;6.43;100.00
14253;BME280;7210;51.502;10.722;2023-04-08T06:31:54;100109.16;;;6.47;100.00
14253;BME280;7210;51.502;10.722;2023-04-08T06:34:22;100110.81;;;6.48;100.00
14253;BME280;7210;51.502;10.722;2023-04-08T06:36:50;100116.13;;;6.54;100.00
14253;BME280;7210;51.502;10.722;2023-04-08T06:39:17;100116.19;;;6.61;100.00
14253;BME280;7210;51.502;10.722;2023-04-08T06:41:46;100116.63;;;6.64;100.00
14253;BME280;7210;51.502;10.722;2023-04-08T06:44:27;100109.56;;;6.65;100.00
14253;BME280;7210;51.502;10.722;2023-04-08T06:46:54;100114.50;;;6.74;100.00
14253;BME280;7210;51.502;10.722;2023-04-08T06:49:25;100126.84;;;6.80;100.00
14253;BME280;7210;51.502;10.722;2023-04-08T06:51:53;100135.44;;;6.89;100.00
14253;BME280;7210;51.502;10.722;2023-04-08T06:54:20;100135.69;;;6.94;100.00
14253;BME280;7210;51.502;10.722;2023-04-08T06:56:47;100132.66;;;6.97;100.00
14253;BME280;7210;51.502;10.722;2023-04-08T06:59:14;100138.78;;;7.04;100.00
14253;BME280;7210;51.502;10.722;2023-04-08T07:01:41;100141.66;;;7.09;100.00
14253;BME280;7210;51.502;10.722;2023-04-08T07:04:08;100136.38;;;7.09;100.00
14253;BME280;7210;51.502;10.722;2023-04-08T07:06:37;100143.91;;;7.12;100.00
14253;BME280;7210;51.502;10.722;2023-04-08T07:09:04;100142.16;;;7.19;100.00
14253;BME280;7210;51.502;10.722;2023-04-08T07:11:31;100136.25;;;7.17;100.00
14253;BME280;7210;51.502;10.722;2023-04-08T07:13:59;100150.47;;;7.22;100.00
14253;BME280;7210;51.502;10.722;2023-04-08T07:16:26;100144.38;;;7.22;100.00
14253;BME280;7210;51.502;10.722;2023-04-08T07:18:53;100144.00;;;7.25;100.00
14253;BME280;7210;51.502;10.722;2023-04-08T07:21:22;100143.00;;;7.26;100.00
14253;BME280;7210;51.502;10.722;2023-04-08T07:23:50;100134.25;;;7.19;100.00
14253;BME280;7210;51.502;10.722;2023-04-08T07:26:17;100151.91;;;7.25;100.00
14253;BME280;7210;51.502;10.722;2023-04-08T07:28:44;100153.13;;;7.28;100.00
14253;BME280;7210;51.502;10.722;2023-04-08T07:31:14;100162.03;;;7.28;100.00
14253;BME280;7210;51.502;10.722;2023-04-08T07:33:42;100159.16;;;7.22;100.00
14253;BME280;7210;51.502;10.722;2023-04-08T07:36:10;100162.00;;;7.21;100.00
14253;BME280;7210;51.502;10.722;2023-04-08T07:38:38;100165.59;;;7.20;100.00
14253;BME280;7210;51.502;10.722;2023-04-08T07:41:07;100173.69;;;7.19;100.00
14253;BME280;7210;51.502;10.722;2023-04-08T07:43:34;100180.19;;;7.22;100.00
14253;BME280;7210;51.502;10.722;2023-04-08T07:46:02;100166.03;;;7.23;100.00
14253;BME280;7210;51.502;10.722;2023-04-08T07:48:30;100177.41;;;7.30;100.00
14253;BME280;7210;51.502;10.722;2023-04-08T07:51:02;100171.09;;;7.25;100.00
14253;BME280;7210;51.502;10.722;2023-04-08T07:53:29;100171.28;;;7.23;100.00
14253;BME280;7210;51.502;10.722;2023-04-08T07:55:57;100169.50;;;7.24;100.00
14253;BME280;7210;51.502;10.722;2023-04-08T07:58:25;100176.19;;;7.27;100.00
14253;BME280;7210;51.502;10.722;2023-04-08T08:00:53;100209.63;;;7.32;100.00
14253;BME280;7210;51.502;10.722;2023-04-08T08:03:20;100208.66;;;7.40;100.00
14253;BME280;7210;51.502;10.722;2023-04-08T08:05:47;100224.88;;;7.43;100.00
14253;BME280;7210;51.502;10.722;2023-04-08T08:08:14;100215.56;;;7.47;100.00
14253;BME280;7210;51.502;10.722;2023-04-08T08:10:41;100233.44;;;7.52;100.00
14253;BME280;7210;51.502;10.722;2023-04-08T08:13:08;100232.63;;;7.51;100.00
14253;BME280;7210;51.502;10.722;2023-04-08T08:15:38;100228.94;;;7.46;100.00
14253;BME280;7210;51.502;10.722;2023-04-08T08:18:05;100234.00;;;7.47;100.00
14253;BME280;7210;51.502;10.722;2023-04-08T08:20:34;100234.84;;;7.54;100.00
14253;BME280;7210;51.502;10.722;2023-04-08T08:23:02;100235.06;;;7.53;100.00
14253;BME280;7210;51.502;10.722;2023-04-08T08:25:29;100226.59;;;7.57;100.00
14253;BME280;7210;51.502;10.722;2023-04-08T08:27:56;100230.25;;;7.56;100.00
14253;BME280;7210;51.502;10.722;2023-04-08T08:30:23;100230.59;;;7.53;100.00
14253;BME280;7210;51.502;10.722;2023-04-08T08:32:52;100226.94;;;7.48;100.00
14253;BME280;7210;51.502;10.722;2023-04-08T08:35:19;100234.06;;;7.54;100.00
14253;BME280;7210;51.502;10.722;2023-04-08T08:37:46;100232.63;;;7.51;100.00
14253;BME280;7210;51.502;10.722;2023-04-08T08:40:14;100239.50;;;7.52;100.00
14253;BME280;7210;51.502;10.722;2023-04-08T08:42:49;100248.00;;;7.54;100.00
14253;BME280;7210;51.502;10.722;2023-04-08T08:45:18;100240.38;;;7.59;100.00
14253;BME280;7210;51.502;10.722;2023-04-08T08:47:45;100242.06;;;7.67;100.00
14253;BME280;7210;51.502;10.722;2023-04-08T08:50:14;100246.09;;;7.69;100.00
14253;BME280;7210;51.502;10.722;2023-04-08T08:52:48;100253.03;;;7.77;100.00
14253;BME280;7210;51.502;10.722;2023-04-08T08:55:17;100262.84;;;7.89;99.88
14253;BME280;7210;51.502;10.722;2023-04-08T08:57:47;100270.63;;;8.04;99.63
14253;BME280;7210;51.502;10.722;2023-04-08T09:00:32;100278.34;;;8.39;99.28
14253;BME280;7210;51.502;10.722;2023-04-08T09:03:18;100281.94;;;8.72;98.40
14253;BME280;7210;51.502;10.722;2023-04-08T09:05:52;100255.22;;;8.88;97.10
14253;BME280;7210;51.502;10.722;2023-04-08T09:08:36;100226.59;;;8.85;95.32
14253;BME280;7210;51.502;10.722;2023-04-08T09:11:12;100182.53;;;8.53;94.46
14253;BME280;7210;51.502;10.722;2023-04-08T09:13:48;100197.72;;;8.51;94.30
14253;BME280;7210;51.502;10.722;2023-04-08T09:16:18;100227.75;;;8.63;93.75
14253;BME280;7210;51.502;10.722;2023-04-08T09:18:48;100210.13;;;8.64;93.68
14253;BME280;7210;51.502;10.722;2023-04-08T09:21:22;100232.47;;;8.74;93.30
14253;BME280;7210;51.502;10.722;2023-04-08T09:23:52;100237.97;;;8.92;92.70
14253;BME280;7210;51.502;10.722;2023-04-08T09:26:45;100233.31;;;8.94;92.57
14253;BME280;7210;51.502;10.722;2023-04-08T09:29:12;100237.59;;;9.02;91.75
14253;BME280;7210;51.502;10.722;2023-04-08T09:31:40;100229.25;;;9.05;91.13
14253;BME280;7210;51.502;10.722;2023-04-08T09:34:15;100263.00;;;9.35;91.47
14253;BME280;7210;51.502;10.722;2023-04-08T09:36:46;100260.56;;;9.53;90.80
14253;BME280;7210;51.502;10.722;2023-04-08T09:39:14;100267.28;;;9.69;90.32
14253;BME280;7210;51.502;10.722;2023-04-08T09:41:42;100249.78;;;9.61;90.27
14253;BME280;7210;51.502;10.722;2023-04-08T09:44:10;100286.56;;;9.82;90.53
14253;BME280;7210;51.502;10.722;2023-04-08T09:46:50;100297.50;;;9.92;90.54
14253;BME280;7210;51.502;10.722;2023-04-08T09:49:25;100319.63;;;10.30;89.65
14253;BME280;7210;51.502;10.722;2023-04-08T09:52:05;100299.06;;;10.45;88.57
14253;BME280;7210;51.502;10.722;2023-04-08T09:54:44;100290.06;;;10.53;87.99
14253;BME280;7210;51.502;10.722;2023-04-08T09:57:21;100305.50;;;10.62;87.68
14253;BME280;7210;51.502;10.722;2023-04-08T09:59:56;100316.38;;;10.85;87.12
14253;BME280;7210;51.502;10.722;2023-04-08T10:02:33;100302.91;;;10.93;86.46
14253;BME280;7210;51.502;10.722;2023-04-08T10:05:07;100309.81;;;10.94;86.18
14253;BME280;7210;51.502;10.722;2023-04-08T10:07:36;100305.50;;;11.00;85.53
14253;BME280;7210;51.502;10.722;2023-04-08T10:10:05;100240.88;;;10.89;83.80
14253;BME280;7210;51.502;10.722;2023-04-08T10:12:35;100187.03;;;10.40;83.32
14253;BME280;7210;51.502;10.722;2023-04-08T10:15:23;100224.91;;;10.27;84.41
14253;BME280;7210;51.502;10.722;2023-04-08T10:17:50;100279.97;;;10.30;84.95
14253;BME280;7210;51.502;10.722;2023-04-08T10:20:40;100297.25;;;10.33;84.98
14253;BME280;7210;51.502;10.722;2023-04-08T10:23:11;100315.38;;;10.29;85.43
14253;BME280;7210;51.502;10.722;2023-04-08T10:25:43;100350.31;;;10.31;85.79
14253;BME280;7210;51.502;10.722;2023-04-08T10:28:29;100342.38;;;10.31;85.48
14253;BME280;7210;51.502;10.722;2023-04-08T10:30:57;100340.94;;;10.42;84.98
14253;BME280;7210;51.502;10.722;2023-04-08T10:33:31;100378.13;;;10.53;85.38
14253;BME280;7210;51.502;10.722;2023-04-08T10:36:07;100404.34;;;10.74;85.59
14253;BME280;7210;51.502;10.722;2023-04-08T10:38:37;100398.38;;;10.85;84.79
14253;BME280;7210;51.502;10.722;2023-04-08T10:41:04;100408.72;;;11.06;84.38
14253;BME280;7210;51.502;10.722;2023-04-08T10:43:37;100364.31;;;11.08;83.23
14253;BME280;7210;51.502;10.722;2023-04-08T10:46:04;100364.69;;;11.12;82.92
14253;BME280;7210;51.502;10.722;2023-04-08T10:48:32;100364.50;;;11.13;82.74
14253;BME280;7210;51.502;10.722;2023-04-08T10:51:00;100380.38;;;11.13;82.84
14253;BME280;7210;51.502;10.722;2023-04-08T10:53:30;100373.31;;;11.01;82.84
14253;BME280;7210;51.502;10.722;2023-04-08T10:56:08;100406.66;;;11.08;83.19
14253;BME280;7210;51.502;10.722;2023-04-08T10:58:47;100421.25;;;11.23;82.97
14253;BME280;7210;51.502;10.722;2023-04-08T11:01:15;100420.78;;;11.33;82.45
14253;BME280;7210;51.502;10.722;2023-04-08T11:03:42;100426.81;;;11.46;81.98
14253;BME280;7210;51.502;10.722;2023-04-08T11:06:10;100426.41;;;11.49;81.71
14253;BME280;7210;51.502;10.722;2023-04-08T11:08:38;100407.88;;;11.49;81.04
14253;BME280;7210;51.502;10.722;2023-04-08T11:11:07;100399.72;;;11.51;80.57
14253;BME280;7210;51.502;10.722;2023-04-08T11:13:36;100378.22;;;11.34;80.35
14253;BME280;7210;51.502;10.722;2023-04-08T11:16:05;100391.50;;;11.28;80.43
14253;BME280;7210;51.502;10.722;2023-04-08T11:18:34;100410.28;;;11.20;81.17
14253;BME280;7210;51.502;10.722;2023-04-08T11:21:01;100437.09;;;11.30;80.68
14253;BME280;7210;51.502;10.722;2023-04-08T11:23:30;100469.66;;;11.37;81.24
14253;BME280;7210;51.502;10.722;2023-04-08T11:25:58;100487.13;;;11.51;80.94
14253;BME280;7210;51.502;10.722;2023-04-08T11:28:27;100507.25;;;11.65;80.91
14253;BME280;7210;51.502;10.722;2023-04-08T11:30:55;100530.16;;;11.90;80.69
14253;BME280;7210;51.502;10.722;2023-04-08T11:33:24;100514.19;;;11.97;80.10
14253;BME280;7210;51.502;10.722;2023-04-08T11:35:52;100492.00;;;11.98;79.41
14253;BME280;7210;51.502;10.722;2023-04-08T11:38:22;100488.00;;;12.13;78.74
14253;BME280;7210;51.502;10.722;2023-04-08T11:40:54;100477.59;;;12.18;78.44
14253;BME280;7210;51.502;10.722;2023-04-08T11:43:21;100430.88;;;11.93;77.89
14253;BME280;7210;51.502;10.722;2023-04-08T11:45:50;100436.94;;;11.69;78.66
14253;BME280;7210;51.502;10.722;2023-04-08T11:48:18;100461.03;;;11.61;78.97
14253;BME280;7210;51.502;10.722;2023-04-08T11:50:47;100473.69;;;11.59;78.99
14253;BME280;7210;51.502;10.722;2023-04-08T11:53:29;100545.66;;;11.87;79.20
14253;BME280;7210;51.502;10.722;2023-04-08T11:55:56;100542.94;;;12.00;78.82
14253;BME280;7210;51.502;10.722;2023-04-08T11:58:23;100554.84;;;12.22;78.26
14253;BME280;7210;51.502;10.722;2023-04-08T12:00:55;100496.34;;;12.17;77.52
14253;BME280;7210;51.502;10.722;2023-04-08T12:03:22;100505.66;;;12.26;76.88
14253;BME280;7210;51.502;10.722;2023-04-08T12:05:49;100500.53;;;12.31;76.55
14253;BME280;7210;51.502;10.722;2023-04-08T12:08:17;100479.31;;;12.31;75.98
14253;BME280;7210;51.502;10.722;2023-04-08T12:10:44;100487.81;;;12.39;75.52
14253;BME280;7210;51.502;10.722;2023-04-08T12:13:11;100485.78;;;12.35;75.59
14253;BME280;7210;51.502;10.722;2023-04-08T12:15:38;100533.44;;;12.48;75.65
14253;BME280;7210;51.502;10.722;2023-04-08T12:18:07;100505.38;;;12.40;75.50
14253;BME280;7210;51.502;10.722;2023-04-08T12:20:34;100485.78;;;12.35;75.00
14253;BME280;7210;51.502;10.722;2023-04-08T12:23:01;100462.16;;;12.09;75.12
14253;BME280;7210;51.502;10.722;2023-04-08T12:25:30;100464.09;;;11.89;75.40
14253;BME280;7210;51.502;10.722;2023-04-08T12:27:57;100496.94;;;11.88;75.21
14253;BME280;7210;51.502;10.722;2023-04-08T12:30:24;100500.72;;;11.67;75.79
14253;BME280;7210;51.502;10.722;2023-04-08T12:32:51;100559.16;;;11.79;76.13
14253;BME280;7210;51.502;10.722;2023-04-08T12:35:21;100534.16;;;11.49;76.54
14253;BME280;7210;51.502;10.722;2023-04-08T12:37:48;100558.00;;;11.49;76.83
14253;BME280;7210;51.502;10.722;2023-04-08T12:40:16;100586.91;;;11.57;76.71
14253;BME280;7210;51.502;10.722;2023-04-08T12:42:44;100598.75;;;11.61;76.56
14253;BME280;7210;51.502;10.722;2023-04-08T12:45:11;100643.94;;;11.79;77.14
14253;BME280;7210;51.502;10.722;2023-04-08T12:47:38;100656.72;;;11.95;76.81
14253;BME280;7210;51.502;10.722;2023-04-08T12:50:06;100612.94;;;11.86;76.33
14253;BME280;7210;51.502;10.722;2023-04-08T12:52:36;100584.38;;;11.88;75.71
14253;BME280;7210;51.502;10.722;2023-04-08T12:55:04;100566.84;;;11.87;75.04
14253;BME280;7210;51.502;10.722;2023-04-08T12:57:31;100549.78;;;11.83;74.94
14253;BME280;7210;51.502;10.722;2023-04-08T12:59:58;100579.50;;;11.85;75.20
14253;BME280;7210;51.502;10.722;2023-04-08T13:02:26;100567.28;;;11.84;74.88
14253;BME280;7210;51.502;10.722;2023-04-08T13:04:53;100622.22;;;12.08;74.99
14253;BME280;7210;51.502;10.722;2023-04-08T13:07:21;100564.34;;;11.98;74.57